Time;durP1;ratioP1;P1;durP2;ratioP2;P2;SDS_P1;SDS_P2;PMS_P1;PMS_P2;Temp;Humidity;BMP_temperature;BMP_pressure;BME280_temperature;BME280_humidity;BME280_pressure;Samples;Min_cycle;Max_cycle;Signal;HPM_P1;HPM_P2
2023/08/08 00:01:10;;;;;;;2.50;0.70;;;;;;;;;;2074520;28;20081;-79
2023/08/08 00:02:30;;;;;;;1.58;0.40;;;;;;;;;;2072010;28;20073;-80
2023/08/08 00:03:49;;;;;;;3.20;0.98;;;;;;;;;;2077044;28;20037;-79
2023/08/08 00:05:09;;;;;;;1.23;0.38;;;;;;;;;;2078526;28;20444;-80
2023/08/08 00:06:28;;;;;;;2.55;0.80;;;;;;;;;;2070294;28;20112;-80
2023/08/08 00:07:46;;;;;;;3.80;0.75;;;;;;;;;;2075633;28;20108;-79
2023/08/08 00:09:06;;;;;;;2.22;0.70;;;;;;;;;;2075821;28;20053;-80
2023/08/08 00:10:25;;;;;;;2.78;0.55;;;;;;;;;;2072189;28;20498;-80
2023/08/08 00:11:44;;;;;;;3.08;0.57;;;;;;;;;;2072383;28;20145;-80
2023/08/08 00:13:03;;;;;;;3.00;0.60;;;;;;;;;;2072626;28;20042;-78
2023/08/08 00:14:23;;;;;;;4.78;0.90;;;;;;;;;;2073095;28;20038;-80
2023/08/08 00:15:42;;;;;;;1.25;0.80;;;;;;;;;;2072275;28;20395;-78
2023/08/08 00:17:01;;;;;;;3.97;0.57;;;;;;;;;;2076420;28;20502;-79
2023/08/08 00:18:20;;;;;;;3.40;0.82;;;;;;;;;;2075231;28;20069;-79
2023/08/08 00:19:39;;;;;;;3.92;0.60;;;;;;;;;;2070854;28;20037;-79
2023/08/08 00:21:02;;;;;;;2.10;1.00;;;;;;;;;;2080761;28;20751;-80
2023/08/08 00:22:21;;;;;;;1.60;0.65;;;;;;;;;;2076795;28;20045;-80
2023/08/08 00:23:40;;;;;;;3.90;0.60;;;;;;;;;;2074608;28;20062;-80
2023/08/08 00:24:59;;;;;;;3.38;0.63;;;;;;;;;;2070851;28;20046;-80
2023/08/08 00:26:19;;;;;;;2.90;0.50;;;;;;;;;;2071971;28;20120;-79
2023/08/08 00:27:42;;;;;;;1.52;0.70;;;;;;;;;;2072222;28;20120;-80
2023/08/08 00:29:01;;;;;;;3.50;0.43;;;;;;;;;;2072414;28;20033;-79
2023/08/08 00:30:20;;;;;;;1.83;0.60;;;;;;;;;;2071006;28;20049;-79
2023/08/08 00:31:39;;;;;;;3.88;0.82;;;;;;;;;;2073368;28;20030;-80
2023/08/08 00:32:58;;;;;;;5.25;0.77;;;;;;;;;;2060493;28;20599;-80
2023/08/08 00:34:16;;;;;;;1.25;0.60;;;;;;;;;;2062883;28;20038;-80
2023/08/08 00:35:35;;;;;;;1.48;0.75;;;;;;;;;;2043211;28;20051;-80
2023/08/08 00:36:54;;;;;;;2.97;0.73;;;;;;;;;;2042814;28;20036;-79
2023/08/08 00:38:14;;;;;;;1.27;0.63;;;;;;;;;;2038774;29;20031;-79
2023/08/08 00:39:34;;;;;;;2.30;0.45;;;;;;;;;;2039732;28;20107;-80
2023/08/08 00:40:53;;;;;;;1.98;0.60;;;;;;;;;;2038405;28;20024;-81
2023/08/08 00:42:13;;;;;;;1.48;0.65;;;;;;;;;;2039770;28;20036;-81
2023/08/08 00:43:32;;;;;;;2.50;0.52;;;;;;;;;;2039308;28;20032;-80
2023/08/08 00:44:54;;;;;;;1.65;0.60;;;;;;;;;;2039422;28;20500;-81
2023/08/08 00:46:14;;;;;;;1.67;0.63;;;;;;;;;;2040200;28;20059;-79
2023/08/08 00:47:36;;;;;;;2.35;0.63;;;;;;;;;;2039853;28;20031;-80
2023/08/08 00:48:55;;;;;;;3.05;0.60;;;;;;;;;;2039918;28;20114;-80
2023/08/08 00:50:14;;;;;;;2.53;0.55;;;;;;;;;;2045332;28;20035;-81
2023/08/08 00:51:34;;;;;;;3.75;0.60;;;;;;;;;;2047765;29;20027;-81
2023/08/08 00:52:54;;;;;;;5.75;0.75;;;;;;;;;;2044083;28;20114;-79
2023/08/08 00:54:13;;;;;;;2.22;0.60;;;;;;;;;;2044158;28;20028;-79
2023/08/08 00:55:32;;;;;;;1.48;0.57;;;;;;;;;;2046616;28;20510;-81
2023/08/08 00:56:56;;;;;;;4.15;0.90;;;;;;;;;;2048237;28;20028;-81
2023/08/08 00:58:15;;;;;;;2.50;0.80;;;;;;;;;;2045765;28;20039;-80
2023/08/08 00:59:34;;;;;;;2.88;0.63;;;;;;;;;;2042714;28;20024;-80
2023/08/08 01:00:57;;;;;;;1.27;0.47;;;;;;;;;;2041041;29;20039;-79
2023/08/08 01:02:16;;;;;;;;;;;;;;;;;;2048814;28;20027;-79
2023/08/08 01:03:35;;;;;;;3.13;0.68;;;;;;;;;;2039362;29;19951;-80
2023/08/08 01:04:54;;;;;;;3.05;1.00;;;;;;;;;;2044791;28;20062;-80
2023/08/08 01:06:31;;;;;;;2.70;0.70;;;;;;;;;;2042332;28;20032;-79
2023/08/08 01:08:03;;;;;;;2.38;0.52;;;;;;;;;;2037702;29;20489;-79
2023/08/08 01:09:29;;;;;;;1.45;0.52;;;;;;;;;;2037365;29;20035;-80
2023/08/08 01:10:48;;;;;;;4.35;0.82;;;;;;;;;;2045314;29;20028;-80
2023/08/08 01:12:08;;;;;;;1.95;0.60;;;;;;;;;;2043045;28;20028;-79
2023/08/08 01:13:28;;;;;;;4.18;0.55;;;;;;;;;;2043308;28;20209;-80
2023/08/08 01:14:47;;;;;;;2.08;0.70;;;;;;;;;;2038440;28;20039;-80
2023/08/08 01:16:06;;;;;;;2.85;0.50;;;;;;;;;;2036246;28;20513;-80
2023/08/08 01:17:25;;;;;;;2.03;0.50;;;;;;;;;;2043701;28;20075;-81
2023/08/08 01:18:46;;;;;;;2.33;0.55;;;;;;;;;;2045531;28;20041;-80
2023/08/08 01:20:06;;;;;;;1.55;0.38;;;;;;;;;;2047450;28;20118;-80
2023/08/08 01:21:30;;;;;;;2.95;0.60;;;;;;;;;;2042434;28;20989;-80
2023/08/08 01:22:58;;;;;;;1.67;0.60;;;;;;;;;;2040939;28;20039;-80
2023/08/08 01:24:18;;;;;;;4.30;1.05;;;;;;;;;;2039604;29;20035;-79
2023/08/08 01:25:38;;;;;;;3.50;0.73;;;;;;;;;;2039490;28;20040;-79
2023/08/08 01:26:57;;;;;;;2.60;0.60;;;;;;;;;;2037460;28;20031;-79
2023/08/08 01:28:20;;;;;;;2.30;0.60;;;;;;;;;;2047932;29;20532;-79
2023/08/08 01:29:39;;;;;;;6.45;0.98;;;;;;;;;;2039997;28;20035;-79
2023/08/08 01:30:58;;;;;;;2.47;0.75;;;;;;;;;;2041361;28;20028;-79
2023/08/08 01:32:17;;;;;;;3.00;0.63;;;;;;;;;;2042778;28;20032;-79
2023/08/08 01:33:36;;;;;;;2.53;0.95;;;;;;;;;;2039738;28;20031;-79
2023/08/08 01:34:55;;;;;;;4.63;0.57;;;;;;;;;;2039453;28;20043;-79
2023/08/08 01:36:17;;;;;;;1.83;0.60;;;;;;;;;;2040516;28;20520;-79
2023/08/08 01:37:41;;;;;;;2.25;0.60;;;;;;;;;;2045397;28;20027;-81
2023/08/08 01:39:04;;;;;;;1.63;0.85;;;;;;;;;;2043431;28;20079;-80
2023/08/08 01:40:25;;;;;;;2.75;0.82;;;;;;;;;;2040614;29;20032;-80
2023/08/08 01:41:47;;;;;;;1.50;0.63;;;;;;;;;;2040978;28;20027;-79
2023/08/08 01:43:07;;;;;;;3.63;0.73;;;;;;;;;;2039009;29;20039;-79
2023/08/08 01:44:26;;;;;;;4.15;0.95;;;;;;;;;;2042652;28;20115;-79
2023/08/08 01:45:45;;;;;;;2.80;0.70;;;;;;;;;;2039993;28;20111;-81
2023/08/08 01:47:04;;;;;;;2.55;0.90;;;;;;;;;;2041653;28;20090;-78
2023/08/08 01:48:23;;;;;;;5.30;0.50;;;;;;;;;;2039301;28;20451;-79
2023/08/08 01:49:42;;;;;;;2.72;0.70;;;;;;;;;;2039584;28;20027;-79
2023/08/08 01:51:01;;;;;;;2.65;0.65;;;;;;;;;;2039938;28;20024;-78
2023/08/08 01:52:20;;;;;;;3.97;1.05;;;;;;;;;;2040768;29;20063;-78
2023/08/08 01:53:39;;;;;;;2.15;0.73;;;;;;;;;;2040065;29;20023;-79
2023/08/08 01:54:58;;;;;;;3.25;0.77;;;;;;;;;;2040049;28;20102;-79
2023/08/08 01:56:16;;;;;;;5.00;0.60;;;;;;;;;;2040931;28;20032;-80
2023/08/08 01:57:35;;;;;;;4.18;0.70;;;;;;;;;;2048678;28;20039;-79
2023/08/08 01:58:56;;;;;;;4.63;1.30;;;;;;;;;;2047311;28;20126;-79
2023/08/08 02:00:15;;;;;;;3.30;0.70;;;;;;;;;;2047972;29;20502;-80
2023/08/08 02:01:33;;;;;;;3.80;0.82;;;;;;;;;;2041536;28;20413;-79
2023/08/08 02:02:52;;;;;;;3.22;0.90;;;;;;;;;;2038312;28;20412;-79
2023/08/08 02:04:13;;;;;;;4.95;1.00;;;;;;;;;;2040283;28;20028;-79
2023/08/08 02:05:32;;;;;;;2.45;0.50;;;;;;;;;;2042848;29;20399;-80
2023/08/08 02:06:51;;;;;;;2.33;0.70;;;;;;;;;;2040257;28;20039;-82
2023/08/08 02:08:11;;;;;;;2.58;0.75;;;;;;;;;;2038627;28;20456;-80
2023/08/08 02:09:33;;;;;;;2.55;1.10;;;;;;;;;;2035895;28;20512;-81
2023/08/08 02:10:53;;;;;;;2.78;0.65;;;;;;;;;;2039228;29;20023;-81
2023/08/08 02:12:11;;;;;;;3.75;0.73;;;;;;;;;;2043560;28;20055;-81
2023/08/08 02:13:30;;;;;;;2.30;0.80;;;;;;;;;;2040468;28;20031;-81
2023/08/08 02:14:50;;;;;;;2.63;0.70;;;;;;;;;;2039954;28;20601;-81
2023/08/08 02:16:09;;;;;;;3.40;0.70;;;;;;;;;;2037335;28;20023;-81
2023/08/08 02:17:29;;;;;;;2.25;0.57;;;;;;;;;;2037789;28;20485;-81
2023/08/08 02:18:48;;;;;;;2.15;0.70;;;;;;;;;;2039598;28;20032;-81
2023/08/08 02:20:07;;;;;;;2.40;0.60;;;;;;;;;;2041223;28;20107;-80
2023/08/08 02:21:26;;;;;;;3.35;0.95;;;;;;;;;;2042097;28;20040;-80
2023/08/08 02:22:45;;;;;;;3.45;1.10;;;;;;;;;;2043115;28;20027;-81
2023/08/08 02:24:04;;;;;;;4.03;0.88;;;;;;;;;;2041708;28;20553;-80
2023/08/08 02:25:24;;;;;;;1.73;0.55;;;;;;;;;;2048639;28;20077;-80
2023/08/08 02:26:43;;;;;;;3.42;0.90;;;;;;;;;;2052095;28;20040;-79
2023/08/08 02:28:02;;;;;;;2.95;0.88;;;;;;;;;;2047659;29;20059;-81
2023/08/08 02:29:21;;;;;;;2.88;0.82;;;;;;;;;;2049583;28;20103;-80
2023/08/08 02:30:41;;;;;;;4.40;0.82;;;;;;;;;;2048524;28;20028;-80
2023/08/08 02:31:59;;;;;;;2.75;0.98;;;;;;;;;;2043603;28;20016;-79
2023/08/08 02:33:18;;;;;;;5.97;1.13;;;;;;;;;;2046974;28;20028;-80
2023/08/08 02:34:38;;;;;;;4.68;1.02;;;;;;;;;;2053661;28;20035;-80
2023/08/08 02:35:57;;;;;;;2.78;0.75;;;;;;;;;;2042226;28;20027;-80
2023/08/08 02:37:16;;;;;;;2.38;0.80;;;;;;;;;;2045837;28;20027;-81
2023/08/08 02:38:35;;;;;;;2.85;0.70;;;;;;;;;;2044641;28;20477;-81
2023/08/08 02:39:54;;;;;;;2.13;1.02;;;;;;;;;;2040255;29;20039;-80
2023/08/08 02:41:13;;;;;;;2.38;0.57;;;;;;;;;;2036895;28;20036;-81
2023/08/08 02:42:32;;;;;;;4.45;0.80;;;;;;;;;;2036596;28;20035;-81
2023/08/08 02:43:51;;;;;;;3.78;0.70;;;;;;;;;;2039019;28;20039;-81
2023/08/08 02:45:10;;;;;;;1.95;0.70;;;;;;;;;;2041198;28;20039;-80
2023/08/08 02:46:29;;;;;;;3.95;0.85;;;;;;;;;;2041691;28;20077;-80
2023/08/08 02:47:48;;;;;;;4.70;0.80;;;;;;;;;;2038870;28;20504;-80
2023/08/08 02:49:07;;;;;;;2.63;1.00;;;;;;;;;;2044033;28;20045;-81
2023/08/08 02:50:26;;;;;;;5.15;1.10;;;;;;;;;;2040302;28;20032;-81
2023/08/08 02:51:45;;;;;;;2.40;0.80;;;;;;;;;;2038997;28;20020;-80
2023/08/08 02:53:04;;;;;;;5.82;0.70;;;;;;;;;;2039076;28;20032;-80
2023/08/08 02:54:24;;;;;;;2.15;0.80;;;;;;;;;;2038493;28;20031;-81
2023/08/08 02:55:48;;;;;;;2.35;0.70;;;;;;;;;;2041100;28;20095;-81
2023/08/08 02:57:10;;;;;;;3.05;0.60;;;;;;;;;;2044731;28;20031;-80
2023/08/08 02:58:29;;;;;;;3.78;0.93;;;;;;;;;;2038220;29;20023;-78
2023/08/08 02:59:48;;;;;;;1.85;0.80;;;;;;;;;;2045197;28;20036;-79
2023/08/08 03:01:07;;;;;;;4.57;1.00;;;;;;;;;;2039215;28;20670;-79
2023/08/08 03:02:27;;;;;;;2.65;0.70;;;;;;;;;;2040308;29;20459;-80
2023/08/08 03:03:46;;;;;;;3.53;0.80;;;;;;;;;;2037161;29;20031;-80
2023/08/08 03:05:06;;;;;;;2.10;0.85;;;;;;;;;;2028465;28;20064;-80
2023/08/08 03:06:25;;;;;;;2.40;0.75;;;;;;;;;;2044156;28;20860;-80
2023/08/08 03:07:44;;;;;;;3.47;0.77;;;;;;;;;;2039052;28;20032;-80
2023/08/08 03:09:03;;;;;;;3.83;0.77;;;;;;;;;;2039547;29;20024;-80
2023/08/08 03:10:22;;;;;;;4.18;0.80;;;;;;;;;;2047572;28;20031;-80
2023/08/08 03:11:41;;;;;;;2.90;0.70;;;;;;;;;;2041010;28;20035;-79
2023/08/08 03:13:00;;;;;;;5.20;0.95;;;;;;;;;;2046068;28;20016;-79
2023/08/08 03:14:19;;;;;;;3.03;1.05;;;;;;;;;;2042729;29;20036;-80
2023/08/08 03:15:39;;;;;;;2.58;0.95;;;;;;;;;;2037441;28;20032;-79
2023/08/08 03:16:58;;;;;;;4.50;1.27;;;;;;;;;;2038265;28;20059;-79
2023/08/08 03:18:17;;;;;;;3.85;1.08;;;;;;;;;;2039932;28;20028;-80
2023/08/08 03:19:35;;;;;;;3.60;1.00;;;;;;;;;;2047255;29;20035;-80
2023/08/08 03:20:54;;;;;;;4.70;1.20;;;;;;;;;;2039598;29;20027;-80
2023/08/08 03:22:13;;;;;;;3.05;0.70;;;;;;;;;;2037815;28;20024;-81
2023/08/08 03:23:32;;;;;;;2.33;1.08;;;;;;;;;;2038357;28;20031;-80
2023/08/08 03:24:50;;;;;;;5.32;1.10;;;;;;;;;;2039215;28;20028;-80
2023/08/08 03:26:09;;;;;;;3.17;0.93;;;;;;;;;;2038726;28;20087;-81
2023/08/08 03:27:28;;;;;;;6.03;1.20;;;;;;;;;;2051162;28;20112;-80
2023/08/08 03:28:50;;;;;;;2.28;0.73;;;;;;;;;;2038923;28;20035;-81
2023/08/08 03:30:09;;;;;;;5.20;1.20;;;;;;;;;;2037905;28;20024;-81
2023/08/08 03:31:28;;;;;;;2.55;0.60;;;;;;;;;;2039456;28;20512;-81
2023/08/08 03:32:47;;;;;;;4.05;0.80;;;;;;;;;;2036730;28;20028;-80
2023/08/08 03:34:06;;;;;;;2.72;0.82;;;;;;;;;;2040950;28;20028;-80
2023/08/08 03:35:25;;;;;;;1.90;0.57;;;;;;;;;;2038983;28;20052;-80
2023/08/08 03:36:44;;;;;;;2.45;0.77;;;;;;;;;;2039596;29;20047;-81
2023/08/08 03:38:03;;;;;;;2.05;0.88;;;;;;;;;;2045314;28;20063;-80
2023/08/08 03:39:21;;;;;;;2.85;0.77;;;;;;;;;;2037698;29;20032;-80
2023/08/08 03:40:40;;;;;;;2.33;0.80;;;;;;;;;;2040713;28;20031;-81
2023/08/08 03:41:59;;;;;;;5.07;0.80;;;;;;;;;;2036653;29;20582;-81
2023/08/08 03:43:18;;;;;;;2.47;0.77;;;;;;;;;;2047780;28;20034;-81
2023/08/08 03:44:40;;;;;;;4.25;0.77;;;;;;;;;;2040506;28;20032;-81
2023/08/08 03:45:59;;;;;;;5.68;0.98;;;;;;;;;;2034606;28;20085;-81
2023/08/08 03:47:18;;;;;;;2.67;0.70;;;;;;;;;;2035383;28;20032;-81
2023/08/08 03:48:37;;;;;;;4.50;0.80;;;;;;;;;;2040298;28;20063;-81
2023/08/08 03:49:57;;;;;;;1.10;0.50;;;;;;;;;;2040190;28;20024;-80
2023/08/08 03:51:16;;;;;;;2.20;0.80;;;;;;;;;;2041701;28;20029;-80
2023/08/08 03:52:37;;;;;;;2.22;0.60;;;;;;;;;;2044033;28;20107;-80
2023/08/08 03:53:56;;;;;;;5.25;1.10;;;;;;;;;;2040364;28;20107;-80
2023/08/08 03:55:15;;;;;;;2.35;0.68;;;;;;;;;;2037880;29;20493;-80
2023/08/08 03:56:34;;;;;;;3.22;0.80;;;;;;;;;;2046822;28;20071;-81
2023/08/08 03:57:53;;;;;;;1.17;0.57;;;;;;;;;;2040806;28;20055;-81
2023/08/08 03:59:12;;;;;;;2.38;0.77;;;;;;;;;;2038844;29;20035;-81
2023/08/08 04:00:31;;;;;;;4.40;1.20;;;;;;;;;;2042832;29;20059;-80
2023/08/08 04:01:50;;;;;;;2.65;0.80;;;;;;;;;;2043482;28;20035;-81
2023/08/08 04:03:09;;;;;;;1.65;0.40;;;;;;;;;;2041059;28;20031;-80
2023/08/08 04:04:27;;;;;;;1.85;0.70;;;;;;;;;;2040296;28;20463;-81
2023/08/08 04:05:47;;;;;;;2.67;1.08;;;;;;;;;;2039213;29;20035;-80
2023/08/08 04:07:06;;;;;;;2.03;0.68;;;;;;;;;;2039759;28;20036;-80
2023/08/08 04:08:25;;;;;;;1.77;0.70;;;;;;;;;;2051686;28;20106;-80
2023/08/08 04:09:43;;;;;;;2.85;0.60;;;;;;;;;;2037550;29;20138;-80
2023/08/08 04:11:02;;;;;;;2.60;0.95;;;;;;;;;;2039387;28;20028;-80
2023/08/08 04:12:21;;;;;;;2.35;0.80;;;;;;;;;;2038432;28;20048;-80
2023/08/08 04:13:40;;;;;;;3.15;0.77;;;;;;;;;;2044219;28;20023;-80
2023/08/08 04:14:59;;;;;;;1.58;0.70;;;;;;;;;;2040959;28;20024;-80
2023/08/08 04:16:18;;;;;;;1.77;0.50;;;;;;;;;;2038155;28;20469;-79
2023/08/08 04:17:37;;;;;;;1.13;0.77;;;;;;;;;;2038452;28;20036;-79
2023/08/08 04:18:56;;;;;;;2.20;0.63;;;;;;;;;;2036218;28;20071;-79
2023/08/08 04:20:17;;;;;;;1.83;0.70;;;;;;;;;;2038713;28;20032;-79
2023/08/08 04:21:36;;;;;;;1.58;0.70;;;;;;;;;;2036867;28;20036;-79
2023/08/08 04:22:55;;;;;;;1.60;0.90;;;;;;;;;;2041274;28;20114;-80
2023/08/08 04:24:14;;;;;;;2.13;0.80;;;;;;;;;;2027909;28;20397;-79
2023/08/08 04:25:33;;;;;;;2.65;1.00;;;;;;;;;;2034194;28;20138;-80
2023/08/08 04:26:52;;;;;;;3.28;1.10;;;;;;;;;;2037365;28;20039;-79
2023/08/08 04:28:11;;;;;;;4.63;0.73;;;;;;;;;;2042860;28;20479;-79
2023/08/08 04:29:30;;;;;;;2.05;0.73;;;;;;;;;;2046702;28;20106;-79
2023/08/08 04:30:49;;;;;;;1.65;0.68;;;;;;;;;;2040823;28;20023;-80
2023/08/08 04:32:11;;;;;;;1.30;0.70;;;;;;;;;;2038218;28;20079;-81
2023/08/08 04:33:30;;;;;;;2.05;0.60;;;;;;;;;;2047492;28;20031;-82
2023/08/08 04:34:49;;;;;;;1.20;0.70;;;;;;;;;;2038132;28;20120;-81
2023/08/08 04:36:08;;;;;;;1.15;1.00;;;;;;;;;;2030115;28;20429;-79
2023/08/08 04:37:27;;;;;;;1.60;0.50;;;;;;;;;;2026142;29;20066;-78
2023/08/08 04:38:46;;;;;;;2.20;0.90;;;;;;;;;;2031904;28;20032;-78
2023/08/08 04:40:07;;;;;;;2.50;0.80;;;;;;;;;;2028643;28;20044;-78
2023/08/08 04:41:26;;;;;;;1.88;0.50;;;;;;;;;;2037399;28;20035;-78
2023/08/08 04:42:45;;;;;;;1.65;0.77;;;;;;;;;;2030441;28;20028;-78
2023/08/08 04:44:04;;;;;;;1.48;0.93;;;;;;;;;;2029221;28;20064;-79
2023/08/08 04:45:23;;;;;;;3.67;1.17;;;;;;;;;;2026708;28;20025;-78
2023/08/08 04:46:42;;;;;;;1.20;0.57;;;;;;;;;;2029206;28;20032;-79
2023/08/08 04:48:01;;;;;;;1.27;0.75;;;;;;;;;;2029670;28;20421;-78
2023/08/08 04:49:20;;;;;;;1.02;0.52;;;;;;;;;;2029938;28;20134;-78
2023/08/08 04:50:40;;;;;;;2.15;0.60;;;;;;;;;;2029410;28;20032;-78
2023/08/08 04:51:59;;;;;;;2.95;0.60;;;;;;;;;;2029359;28;20095;-78
2023/08/08 04:53:18;;;;;;;4.65;0.85;;;;;;;;;;2029510;28;20032;-80
2023/08/08 04:54:37;;;;;;;3.13;0.77;;;;;;;;;;2026843;28;20085;-79
2023/08/08 04:55:56;;;;;;;1.30;0.50;;;;;;;;;;2026827;28;20028;-79
2023/08/08 04:57:15;;;;;;;0.50;0.43;;;;;;;;;;2030374;28;20040;-80
2023/08/08 04:58:34;;;;;;;1.52;0.85;;;;;;;;;;2032125;28;20033;-78
2023/08/08 04:59:53;;;;;;;1.05;0.45;;;;;;;;;;2029007;28;20044;-83
2023/08/08 05:01:14;;;;;;;2.25;0.68;;;;;;;;;;2028317;28;20036;-80
2023/08/08 05:02:33;;;;;;;2.28;0.50;;;;;;;;;;2030608;29;20059;-80
2023/08/08 05:03:52;;;;;;;3.67;0.70;;;;;;;;;;2030135;28;20028;-80
2023/08/08 05:05:11;;;;;;;1.45;0.60;;;;;;;;;;2036389;28;20033;-80
2023/08/08 05:06:32;;;;;;;1.75;0.70;;;;;;;;;;2026688;28;20111;-80
2023/08/08 05:07:52;;;;;;;0.82;0.60;;;;;;;;;;2031188;28;20044;-83
2023/08/08 05:09:11;;;;;;;1.17;0.60;;;;;;;;;;2032337;28;20509;-82
2023/08/08 05:10:31;;;;;;;1.13;0.50;;;;;;;;;;2034051;28;20119;-83
2023/08/08 05:11:50;;;;;;;2.33;0.57;;;;;;;;;;2033558;28;20421;-84
2023/08/08 05:13:10;;;;;;;1.85;0.40;;;;;;;;;;2067412;28;20113;-79
2023/08/08 05:14:29;;;;;;;2.70;0.60;;;;;;;;;;2041753;28;20504;-81
2023/08/08 05:15:48;;;;;;;1.33;0.50;;;;;;;;;;2037817;28;20024;-81
2023/08/08 05:17:07;;;;;;;0.77;0.40;;;;;;;;;;2035254;28;20028;-81
2023/08/08 05:18:26;;;;;;;1.15;0.90;;;;;;;;;;2031567;28;20032;-81
2023/08/08 05:19:45;;;;;;;0.93;0.35;;;;;;;;;;2031488;28;20723;-79
2023/08/08 05:21:05;;;;;;;1.35;0.55;;;;;;;;;;2031328;29;20020;-81
2023/08/08 05:22:24;;;;;;;0.90;0.40;;;;;;;;;;2036633;28;20482;-80
2023/08/08 05:23:43;;;;;;;0.65;0.30;;;;;;;;;;2037304;28;20064;-81
2023/08/08 05:25:02;;;;;;;1.65;0.40;;;;;;;;;;2029856;29;20406;-81
2023/08/08 05:26:21;;;;;;;1.60;0.40;;;;;;;;;;2030275;29;20119;-79
2023/08/08 05:27:40;;;;;;;0.90;0.28;;;;;;;;;;2026831;28;20024;-81
2023/08/08 05:28:59;;;;;;;1.33;0.50;;;;;;;;;;2035491;28;20064;-80
2023/08/08 05:30:18;;;;;;;1.70;0.80;;;;;;;;;;2030659;28;20028;-79
2023/08/08 05:31:37;;;;;;;1.13;0.32;;;;;;;;;;2032481;28;20028;-80
2023/08/08 05:32:56;;;;;;;1.98;0.30;;;;;;;;;;2033214;28;20044;-80
2023/08/08 05:34:15;;;;;;;1.20;0.38;;;;;;;;;;2031426;28;20036;-80
2023/08/08 05:35:34;;;;;;;0.75;0.35;;;;;;;;;;2034344;28;20091;-81
2023/08/08 05:36:53;;;;;;;0.63;0.40;;;;;;;;;;2044698;28;20027;-80
2023/08/08 05:38:12;;;;;;;0.85;0.40;;;;;;;;;;2042823;29;20073;-82
2023/08/08 05:39:32;;;;;;;0.32;0.30;;;;;;;;;;2039250;28;20036;-83
2023/08/08 05:40:51;;;;;;;0.75;0.30;;;;;;;;;;2036606;28;20035;-83
2023/08/08 05:42:10;;;;;;;0.88;0.40;;;;;;;;;;2037424;28;20031;-85
2023/08/08 05:43:28;;;;;;;0.80;0.43;;;;;;;;;;2044260;28;20536;-83
2023/08/08 05:44:47;;;;;;;0.38;0.38;;;;;;;;;;2043338;28;20039;-83
2023/08/08 05:46:06;;;;;;;0.63;0.60;;;;;;;;;;2038896;28;20032;-82
2023/08/08 05:47:25;;;;;;;0.77;0.47;;;;;;;;;;2039023;28;20044;-85
2023/08/08 05:48:44;;;;;;;1.40;1.02;;;;;;;;;;2048921;28;20039;-85
2023/08/08 05:50:03;;;;;;;0.73;0.73;;;;;;;;;;2039776;28;20031;-83
2023/08/08 05:51:22;;;;;;;1.02;0.60;;;;;;;;;;2038718;28;20040;-83
2023/08/08 05:52:41;;;;;;;2.00;0.57;;;;;;;;;;2046476;28;20062;-85
2023/08/08 05:54:00;;;;;;;3.35;0.63;;;;;;;;;;2040344;28;20024;-84
2023/08/08 05:55:19;;;;;;;0.57;0.50;;;;;;;;;;2037218;28;20028;-84
2023/08/08 05:56:38;;;;;;;0.35;0.35;;;;;;;;;;2041972;28;20122;-83
2023/08/08 05:57:57;;;;;;;3.38;0.60;;;;;;;;;;2045576;28;20115;-81
2023/08/08 05:59:16;;;;;;;0.45;0.30;;;;;;;;;;2054535;28;20039;-83
2023/08/08 06:00:35;;;;;;;1.40;0.50;;;;;;;;;;2052839;28;20020;-82
2023/08/08 06:01:54;;;;;;;0.82;0.45;;;;;;;;;;2048483;28;20063;-81
2023/08/08 06:03:13;;;;;;;1.88;0.85;;;;;;;;;;2049253;28;20040;-82
2023/08/08 06:04:32;;;;;;;0.52;0.38;;;;;;;;;;2054325;28;20027;-83
2023/08/08 06:05:51;;;;;;;1.73;0.95;;;;;;;;;;2055473;28;20024;-84
2023/08/08 06:07:11;;;;;;;0.85;0.40;;;;;;;;;;2047948;28;20032;-83
2023/08/08 06:08:31;;;;;;;2.40;0.60;;;;;;;;;;2047161;28;20028;-83
2023/08/08 06:09:50;;;;;;;1.15;0.55;;;;;;;;;;2044736;28;20023;-83
2023/08/08 06:11:09;;;;;;;0.68;0.40;;;;;;;;;;2043125;28;20115;-84
2023/08/08 06:12:28;;;;;;;0.90;0.70;;;;;;;;;;2043369;28;20059;-84
2023/08/08 06:13:50;;;;;;;0.30;0.30;;;;;;;;;;2050867;28;20023;-84
2023/08/08 06:15:09;;;;;;;1.15;0.57;;;;;;;;;;2043319;28;20040;-84
2023/08/08 06:16:29;;;;;;;0.65;0.60;;;;;;;;;;2041489;28;20032;-83
2023/08/08 06:17:48;;;;;;;1.08;0.32;;;;;;;;;;2049018;28;20519;-84
2023/08/08 06:19:10;;;;;;;0.52;0.32;;;;;;;;;;2041693;28;20043;-81
2023/08/08 06:20:29;;;;;;;0.88;0.30;;;;;;;;;;2051394;28;20035;-85
2023/08/08 06:21:48;;;;;;;1.13;0.43;;;;;;;;;;2044823;28;20432;-84
2023/08/08 06:23:08;;;;;;;1.42;0.40;;;;;;;;;;2042467;28;20039;-82
2023/08/08 06:24:28;;;;;;;0.45;0.38;;;;;;;;;;2042024;28;20112;-84
2023/08/08 06:25:47;;;;;;;1.30;0.35;;;;;;;;;;2041504;28;20044;-83
2023/08/08 06:27:06;;;;;;;0.45;0.38;;;;;;;;;;2038982;28;20067;-84
2023/08/08 06:28:25;;;;;;;0.80;0.40;;;;;;;;;;2041712;29;20036;-84
2023/08/08 06:29:44;;;;;;;0.60;0.40;;;;;;;;;;2041848;28;20028;-84
2023/08/08 06:31:02;;;;;;;0.93;0.40;;;;;;;;;;2044341;28;20114;-84
2023/08/08 06:32:21;;;;;;;0.40;0.30;;;;;;;;;;2040518;29;20513;-84
2023/08/08 06:33:40;;;;;;;0.50;0.30;;;;;;;;;;2045991;28;20058;-83
2023/08/08 06:35:00;;;;;;;0.93;0.30;;;;;;;;;;2043030;29;20044;-85
2023/08/08 06:36:19;;;;;;;0.40;0.40;;;;;;;;;;2041772;29;20036;-85
2023/08/08 06:37:38;;;;;;;0.50;0.28;;;;;;;;;;2043382;28;20031;-84
2023/08/08 06:38:57;;;;;;;0.80;0.32;;;;;;;;;;2048810;28;20043;-84
2023/08/08 06:40:18;;;;;;;0.20;0.13;;;;;;;;;;2042684;28;20043;-84
2023/08/08 06:41:38;;;;;;;1.33;0.30;;;;;;;;;;2040650;29;20020;-85
2023/08/08 06:42:57;;;;;;;0.45;0.30;;;;;;;;;;2041814;28;20040;-85
2023/08/08 06:44:16;;;;;;;0.30;0.30;;;;;;;;;;2038501;28;20280;-84
2023/08/08 06:45:34;;;;;;;3.10;0.38;;;;;;;;;;2038658;28;20056;-83
2023/08/08 06:46:53;;;;;;;1.20;0.28;;;;;;;;;;2038141;29;20040;-84
2023/08/08 06:48:12;;;;;;;3.70;0.45;;;;;;;;;;2042821;29;20039;-85
2023/08/08 06:49:31;;;;;;;2.42;0.30;;;;;;;;;;2040426;28;20043;-85
2023/08/08 06:50:53;;;;;;;1.60;0.50;;;;;;;;;;2047064;28;20110;-85
2023/08/08 06:52:12;;;;;;;1.33;0.50;;;;;;;;;;2043405;28;20976;-83
2023/08/08 06:53:31;;;;;;;0.75;0.30;;;;;;;;;;2042308;29;20059;-85
2023/08/08 06:54:50;;;;;;;3.95;0.40;;;;;;;;;;2055124;28;20024;-85
2023/08/08 06:56:09;;;;;;;0.88;0.25;;;;;;;;;;2041841;28;20501;-85
2023/08/08 06:57:32;;;;;;;0.90;0.40;;;;;;;;;;2041456;28;20166;-85
2023/08/08 06:58:51;;;;;;;0.80;0.30;;;;;;;;;;2044478;28;20039;-85
2023/08/08 07:00:12;;;;;;;0.80;0.35;;;;;;;;;;2042158;29;20481;-85
2023/08/08 07:01:31;;;;;;;2.03;0.45;;;;;;;;;;2045074;28;20031;-84
2023/08/08 07:02:51;;;;;;;1.27;0.40;;;;;;;;;;2043791;28;20031;-85
2023/08/08 07:04:09;;;;;;;0.68;0.28;;;;;;;;;;2042998;29;20036;-84
2023/08/08 07:05:29;;;;;;;1.00;0.38;;;;;;;;;;2043862;28;20031;-87
2023/08/08 07:06:48;;;;;;;0.68;0.40;;;;;;;;;;2043483;28;20486;-84
2023/08/08 07:08:08;;;;;;;0.40;0.30;;;;;;;;;;2043506;28;20040;-86
2023/08/08 07:09:30;;;;;;;0.70;0.30;;;;;;;;;;2048347;28;20059;-84
2023/08/08 07:10:50;;;;;;;0.73;0.30;;;;;;;;;;2041210;28;20032;-85
2023/08/08 07:12:10;;;;;;;0.40;0.40;;;;;;;;;;2038885;28;20032;-84
2023/08/08 07:13:29;;;;;;;0.40;0.30;;;;;;;;;;2042998;28;20024;-85
2023/08/08 07:14:50;;;;;;;1.23;0.50;;;;;;;;;;2041667;28;20497;-85
2023/08/08 07:16:08;;;;;;;1.15;0.30;;;;;;;;;;2045938;28;20098;-85
2023/08/08 07:17:27;;;;;;;0.60;0.38;;;;;;;;;;2050444;28;20032;-84
2023/08/08 07:18:46;;;;;;;0.30;0.30;;;;;;;;;;2051269;28;20075;-84
2023/08/08 07:20:06;;;;;;;0.35;0.22;;;;;;;;;;2046184;28;20498;-84
2023/08/08 07:21:25;;;;;;;0.65;0.40;;;;;;;;;;2041352;29;20040;-84
2023/08/08 07:22:44;;;;;;;1.52;0.30;;;;;;;;;;2046619;28;20023;-84
2023/08/08 07:24:03;;;;;;;0.28;0.22;;;;;;;;;;2048349;28;20051;-85
2023/08/08 07:25:23;;;;;;;1.58;0.30;;;;;;;;;;2044105;28;20036;-84
2023/08/08 07:26:41;;;;;;;1.13;0.47;;;;;;;;;;2041345;29;20036;-84
2023/08/08 07:28:01;;;;;;;0.30;0.30;;;;;;;;;;2040577;28;20036;-84
2023/08/08 07:29:21;;;;;;;0.43;0.35;;;;;;;;;;2043071;28;20048;-84
2023/08/08 07:30:40;;;;;;;0.68;0.30;;;;;;;;;;2038825;28;20103;-85
2023/08/08 07:32:02;;;;;;;1.42;0.52;;;;;;;;;;2040163;28;20021;-86
2023/08/08 07:33:21;;;;;;;0.77;0.30;;;;;;;;;;2039627;29;20036;-86
2023/08/08 07:34:41;;;;;;;0.47;0.30;;;;;;;;;;2043937;28;20035;-86
2023/08/08 07:36:00;;;;;;;1.08;0.35;;;;;;;;;;2050810;28;20045;-86
2023/08/08 07:37:19;;;;;;;0.90;0.40;;;;;;;;;;2048381;29;20036;-86
2023/08/08 07:38:38;;;;;;;0.47;0.45;;;;;;;;;;2048855;28;20055;-84
2023/08/08 07:39:57;;;;;;;1.55;0.45;;;;;;;;;;2049765;28;20027;-87
2023/08/08 07:41:17;;;;;;;1.38;0.50;;;;;;;;;;2043456;28;20068;-84
2023/08/08 07:42:36;;;;;;;0.88;0.35;;;;;;;;;;2036948;28;20032;-85
2023/08/08 07:43:55;;;;;;;1.88;0.80;;;;;;;;;;2036941;28;20055;-84
2023/08/08 07:45:16;;;;;;;1.52;0.43;;;;;;;;;;2045221;29;20507;-85
2023/08/08 07:46:35;;;;;;;0.90;0.60;;;;;;;;;;2049227;28;20044;-84
2023/08/08 07:47:53;;;;;;;1.55;0.38;;;;;;;;;;2040544;28;20036;-84
2023/08/08 07:49:13;;;;;;;0.50;0.50;;;;;;;;;;2037477;28;20043;-85
2023/08/08 07:50:32;;;;;;;0.88;0.60;;;;;;;;;;2040829;28;20492;-85
2023/08/08 07:51:51;;;;;;;0.98;0.70;;;;;;;;;;2043658;28;20028;-84
2023/08/08 07:53:10;;;;;;;1.02;0.68;;;;;;;;;;2052930;28;20019;-85
2023/08/08 07:54:30;;;;;;;1.17;0.63;;;;;;;;;;2053715;28;20062;-81
2023/08/08 07:55:49;;;;;;;1.42;1.05;;;;;;;;;;2057085;28;20036;-83
2023/08/08 07:57:08;;;;;;;1.08;0.50;;;;;;;;;;2054577;29;20035;-84